Flight Track Log - Related Links

Times and Time Zones

All times are in EDT time to prevent confusion due to time zone crossing. See the TAM3961 flight status page for this flight to view local times or setup timezone preferences in your user account.

Time Position Orientation Groundspeed Altitude Reporting Facility
EDT Latitude Longitude Course Direction KTS MPH feet Rate Location/Type
08:19PM -22.9250 -43.1600 155° Southeast 153 176 600  Level FlightAware
08:20PM -22.9330 -43.1510 134° Southeast 168 193 1,200 1,950 Climbing FlightAware
08:20PM -22.9460 -43.1340 130° Southeast 201 231 1,900 1,650 Climbing FlightAware
08:20PM -22.9580 -43.1240 143° Southeast 231 266 2,300 2,000 Climbing FlightAware
08:20PM -22.9690 -43.1210 166° South 245 282 2,700 3,214 Climbing FlightAware
08:21PM -22.9930 -43.1270 193° South 264 304 3,800 3,529 Climbing FlightAware
08:21PM -23.0090 -43.1320 196° South 265 305 4,700 4,000 Climbing FlightAware
08:22PM -23.0420 -43.1420 196° South 269 310 6,600 4,091 Climbing FlightAware
08:22PM -23.0550 -43.1580 229° Southwest 264 304 7,700 4,227 Climbing FlightAware
08:22PM -23.0680 -43.1920 247° West 262 302 9,700 3,000 Climbing FlightAware
08:23PM -23.0840 -43.2360 248° West 309 356 10,800 2,211 Climbing FlightAware
08:24PM -23.1090 -43.3020 248° West 348 400 12,500 2,860 Climbing FlightAware
08:24PM -23.1370 -43.3750 247° West 362 417 14,900 3,220 Climbing FlightAware
08:25PM -23.1610 -43.4410 248° West 369 425 16,900 3,405 Climbing FlightAware
08:25PM -23.1840 -43.5020 248° West 363 418 19,100 3,075 Climbing FlightAware
08:26PM -23.2120 -43.5760 248° West 377 434 21,000 2,714 Climbing FlightAware
08:27PM -23.2390 -43.6470 248° West 379 436 22,900 3,000 Climbing FlightAware
08:28PM -23.2680 -43.7250 248° West 372 428 25,200 2,857 Climbing FlightAware
08:28PM -23.2940 -43.7940 248° West 373 429 26,900 1,929 Climbing FlightAware
08:29PM -23.3230 -43.8730 248° West 381 438 27,900 786 Climbing FlightAware
08:30PM -23.3490 -43.9430 248° West 376 433 28,000 79 Climbing FlightAware
08:30PM -23.3710 -44.0070 249° West 362 417 28,000  Level FlightAware
08:31PM -23.3870 -44.0790 256° West 348 400 28,000  Level FlightAware
08:32PM -23.4030 -44.1530 257° West 350 403 28,000  Level FlightAware
08:32PM -23.4140 -44.2080 258° West 349 402 28,000  Level FlightAware
08:33PM -23.4300 -44.2830 257° West 347 399 28,000  Level FlightAware
08:34PM -23.4440 -44.3490 257° West 347 399 28,000  Level FlightAware
08:34PM -23.4600 -44.4220 257° West 348 400 28,000  Level FlightAware
08:35PM -23.4750 -44.4910 257° West 349 402 28,000  Level FlightAware
08:36PM -23.4910 -44.5670 257° West 350 403 28,000  Level FlightAware
08:36PM -23.5050 -44.6370 258° West 348 400 28,000  Level FlightAware
08:37PM -23.5180 -44.6960 256° West 347 399 28,000  Level FlightAware
08:38PM -23.5320 -44.7640 257° West 346 398 28,000  Level FlightAware
08:38PM -23.5460 -44.8330 258° West 344 396 28,000  Level FlightAware
08:39PM -23.5610 -44.9010 256° West 342 394 28,000  Level FlightAware
08:40PM -23.5750 -44.9680 257° West 328 377 28,000  Level FlightAware
08:40PM -23.5890 -45.0380 258° West 314 361 28,000  Level FlightAware
08:41PM -23.6020 -45.0970 256° West 316 364 28,000  Level FlightAware
08:42PM -23.6170 -45.1690 257° West 300 345 28,000  Level FlightAware
08:43PM -23.6280 -45.2270 258° West 283 326 28,000  Level FlightAware
08:43PM -23.6400 -45.2820 257° West 283 326 28,000  Level FlightAware
08:44PM -23.6510 -45.3380 258° West 283 326 28,000  Level FlightAware
08:45PM -23.6630 -45.3940 257° West 283 326 28,000 -825 Level FlightAware
08:45PM -23.6750 -45.4520 257° West 286 329 26,900 -1,575 Descending FlightAware
08:46PM -23.6860 -45.5070 258° West 283 326 25,900 -1,425 Descending FlightAware
08:47PM -23.6970 -45.5610 257° West 274 315 25,000 -1,482 Descending FlightAware
08:47PM -23.7100 -45.6230 257° West 269 310 23,800 -1,533 Descending FlightAware
08:48PM -23.7210 -45.6820 258° West 263 303 22,700 -1,412 Descending FlightAware
08:49PM -23.7320 -45.7340 257° West 259 298 21,800 -1,350 Descending FlightAware
08:49PM -23.7420 -45.7850 258° West 256 295 20,900 -1,482 Descending FlightAware
08:50PM -23.7540 -45.8410 257° West 258 297 19,700 -1,129 Descending FlightAware
08:51PM -23.7630 -45.8880 258° West 242 278 19,300 -977 Descending FlightAware
08:52PM -23.7800 -45.9440 252° West 243 280 18,300 -1,256 Descending FlightAware
08:52PM -23.8060 -45.9840 235° Southwest 243 280 17,500 -1,050 Descending FlightAware
08:53PM -23.8380 -46.0180 224° Southwest 246 283 16,900 -846 Descending FlightAware
08:53PM -23.8690 -46.0510 224° Southwest 247 284 16,400 -750 Descending FlightAware
08:54PM -23.9040 -46.0880 224° Southwest 239 275 15,900 -750 Descending FlightAware
08:55PM -23.9340 -46.1210 225° Southwest 239 275 15,400 -867 Descending FlightAware
08:56PM -23.9690 -46.1580 224° Southwest 238 274 14,700 -907 Descending FlightAware
08:56PM -24.0020 -46.1920 223° Southwest 241 277 14,100 -828 Descending FlightAware
08:57PM -24.0370 -46.2300 225° Southwest 234 269 13,500 -929 Descending FlightAware
08:58PM -24.0680 -46.2620 223° Southwest 231 266 12,800 -1,050 Descending FlightAware
08:58PM -24.0990 -46.2950 224° Southwest 224 258 12,100 -857 Descending FlightAware
08:59PM -24.1310 -46.3280 223° Southwest 220 253 11,600 -735 Descending FlightAware
09:00PM -24.1640 -46.3770 234° Southwest 214 246 10,900 -612 Descending FlightAware
09:01PM -24.1700 -46.4160 260° West 219 252 10,600 -429 Descending FlightAware
09:01PM -24.1630 -46.4260 307° West 228 262 10,500 -764 Descending FlightAware
09:02PM -24.1300 -46.4620 315° West 231 266 9,900 -1,029 Descending FlightAware
09:02PM -24.1070 -46.4870 315° West 233 268 9,300 -1,245 Descending FlightAware
09:02PM -24.0880 -46.5070 316° Northwest 230 265 8,800 -1,091 Descending FlightAware
09:03PM -24.0670 -46.5320 313° West 224 258 8,300 -787 Descending FlightAware
09:04PM -24.0460 -46.5550 315° West 210 242 8,000 -750 Descending FlightAware
09:04PM -24.0270 -46.5680 328° Northwest 216 249 7,600 -1,053 Descending FlightAware
09:04PM -23.9970 -46.5450 35° Northeast 215 247 7,000 -1,227 Descending FlightAware
09:05PM -23.9920 -46.5310 69° East 216 249 6,700 -1,050 Descending FlightAware
09:05PM -23.9840 -46.5090 68° East 213 245 6,300 -842 Descending FlightAware
09:06PM -23.9730 -46.4790 68° East 211 243 5,900 -400 Descending FlightAware
09:06PM -23.9620 -46.4500 67° East 214 246 5,900  Level FlightAware
09:06PM -23.9520 -46.4430 33° Northeast 210 242 5,900  Level FlightAware
09:07PM -23.9280 -46.4360 15° North 209 241 5,900  Level FlightAware
09:07PM -23.9010 -46.4280 15° North 205 236 5,900  Level FlightAware
09:08PM -23.8710 -46.4330 351° North 196 226 5,900 -182 Level FlightAware
09:08PM -23.8540 -46.4570 308° West 183 211 5,700 -400 Descending FlightAware
09:09PM -23.8400 -46.4770 307° West 172 198 5,500 -383 Descending FlightAware
09:09PM -23.8300 -46.4900 310° West 175 201 5,400 -383 Descending FlightAware
09:10PM -23.8150 -46.5100 309° West 173 199 5,200 -391 Descending FlightAware
09:10PM -23.8070 -46.5210 308° West 173 199 5,100 -119 Descending FlightAware
09:12PM -23.7390 -46.5790 322° Northwest 128 147 4,900 -286 Descending FlightAware
09:13PM -23.7110 -46.5980 328° Northwest 121 139 4,300 -964 Descending FlightAware
09:13PM -23.7010 -46.6050 327° Northwest 120 138 4,000 -783 Descending FlightAware
09:13PM -23.6890 -46.6130 329° Northwest 121 139 3,700 -577 Descending FlightAware
09:14PM -23.6770 -46.6220 326° Northwest 121 139 3,500 -556 Descending FlightAware
09:14PM -23.6640 -46.6300 331° Northwest 121 139 3,200 -714 Descending FlightAware
09:15PM -23.6570 -46.6360 322° Northwest 120 138 3,000 -357 Descending FlightAware
09:16PM -23.6300 -46.6550 327° Northwest 123 142 2,700 -265 Descending FlightAware
09:17PM -23.6280 -46.6470 75° East 123 142 -3,115 Descending FlightAware
09:18PM -23.6230 -46.6600 293° West 123 142  Level FlightAware
09:18PM -23.6150 -46.6480 54° Northeast 123 142  Level FlightAware
09:19PM -23.6250 -46.6600 228° Southwest  Level FlightAware
09:22PM -23.6267 -46.6554 112° Southeast  Level Estimated

Login

Don't have an account? Register now (free) for customized features, flight alerts, and more!